sensor_id;sensor_type;location;lat;lon;timestamp;temperature;humidity
12060;DHT22;6091;51.432;6.880;2023-11-25T00:01:04;22.30;39.50
12060;DHT22;6091;51.432;6.880;2023-11-25T00:03:32;22.20;39.40
12060;DHT22;6091;51.432;6.880;2023-11-25T00:05:59;22.30;39.50
12060;DHT22;6091;51.432;6.880;2023-11-25T00:08:27;22.30;39.60
12060;DHT22;6091;51.432;6.880;2023-11-25T00:10:55;22.30;39.60
12060;DHT22;6091;51.432;6.880;2023-11-25T00:13:23;22.30;39.60
12060;DHT22;6091;51.432;6.880;2023-11-25T00:15:52;22.20;39.50
12060;DHT22;6091;51.432;6.880;2023-11-25T00:18:21;22.20;39.50
12060;DHT22;6091;51.432;6.880;2023-11-25T00:20:49;22.20;39.50
12060;DHT22;6091;51.432;6.880;2023-11-25T00:23:17;22.20;39.60
12060;DHT22;6091;51.432;6.880;2023-11-25T00:25:45;22.20;39.60
12060;DHT22;6091;51.432;6.880;2023-11-25T00:28:12;22.20;39.60
12060;DHT22;6091;51.432;6.880;2023-11-25T00:30:40;22.20;39.60
12060;DHT22;6091;51.432;6.880;2023-11-25T00:33:08;22.20;39.60
12060;DHT22;6091;51.432;6.880;2023-11-25T00:35:35;22.20;39.70
12060;DHT22;6091;51.432;6.880;2023-11-25T00:38:03;22.20;39.70
12060;DHT22;6091;51.432;6.880;2023-11-25T00:40:35;22.20;39.70
12060;DHT22;6091;51.432;6.880;2023-11-25T00:43:02;22.20;39.70
12060;DHT22;6091;51.432;6.880;2023-11-25T00:45:30;22.10;39.70
12060;DHT22;6091;51.432;6.880;2023-11-25T00:47:57;22.10;39.70
12060;DHT22;6091;51.432;6.880;2023-11-25T00:50:27;22.10;39.70
12060;DHT22;6091;51.432;6.880;2023-11-25T00:52:57;22.10;39.70
12060;DHT22;6091;51.432;6.880;2023-11-25T00:55:24;22.10;39.70
12060;DHT22;6091;51.432;6.880;2023-11-25T00:57:53;22.10;39.70
12060;DHT22;6091;51.432;6.880;2023-11-25T01:00:20;22.10;39.70
12060;DHT22;6091;51.432;6.880;2023-11-25T01:02:52;22.10;39.70
12060;DHT22;6091;51.432;6.880;2023-11-25T01:05:20;22.10;39.70
12060;DHT22;6091;51.432;6.880;2023-11-25T01:07:47;22.10;39.80
12060;DHT22;6091;51.432;6.880;2023-11-25T01:10:15;22.10;39.80
12060;DHT22;6091;51.432;6.880;2023-11-25T01:12:42;22.10;39.80
12060;DHT22;6091;51.432;6.880;2023-11-25T01:15:10;22.00;39.70
12060;DHT22;6091;51.432;6.880;2023-11-25T01:17:42;22.00;39.80
12060;DHT22;6091;51.432;6.880;2023-11-25T01:20:10;22.00;40.40
12060;DHT22;6091;51.432;6.880;2023-11-25T01:22:38;22.10;39.80
12060;DHT22;6091;51.432;6.880;2023-11-25T01:25:06;22.00;39.80
12060;DHT22;6091;51.432;6.880;2023-11-25T01:27:34;22.00;39.80
12060;DHT22;6091;51.432;6.880;2023-11-25T01:30:03;22.00;39.80
12060;DHT22;6091;51.432;6.880;2023-11-25T01:32:32;22.00;39.80
12060;DHT22;6091;51.432;6.880;2023-11-25T01:35:00;22.00;39.80
12060;DHT22;6091;51.432;6.880;2023-11-25T01:37:27;22.00;39.90
12060;DHT22;6091;51.432;6.880;2023-11-25T01:39:56;22.00;39.90
12060;DHT22;6091;51.432;6.880;2023-11-25T01:42:25;21.90;39.80
12060;DHT22;6091;51.432;6.880;2023-11-25T01:44:52;21.90;39.80
12060;DHT22;6091;51.432;6.880;2023-11-25T01:47:20;21.90;40.40
12060;DHT22;6091;51.432;6.880;2023-11-25T01:49:48;21.90;39.80
12060;DHT22;6091;51.432;6.880;2023-11-25T01:52:16;21.90;39.80
12060;DHT22;6091;51.432;6.880;2023-11-25T01:54:44;21.90;39.90
12060;DHT22;6091;51.432;6.880;2023-11-25T01:57:12;21.90;39.90
12060;DHT22;6091;51.432;6.880;2023-11-25T01:59:44;21.90;39.90
12060;DHT22;6091;51.432;6.880;2023-11-25T02:02:15;21.90;40.00
12060;DHT22;6091;51.432;6.880;2023-11-25T02:04:47;21.90;40.00
12060;DHT22;6091;51.432;6.880;2023-11-25T02:07:15;21.90;40.00
12060;DHT22;6091;51.432;6.880;2023-11-25T02:09:42;21.90;40.00
12060;DHT22;6091;51.432;6.880;2023-11-25T02:12:09;21.80;39.80
12060;DHT22;6091;51.432;6.880;2023-11-25T02:14:37;21.80;39.90
12060;DHT22;6091;51.432;6.880;2023-11-25T02:17:05;21.80;39.90
12060;DHT22;6091;51.432;6.880;2023-11-25T02:19:32;21.80;39.90
12060;DHT22;6091;51.432;6.880;2023-11-25T02:21:59;21.80;39.90
12060;DHT22;6091;51.432;6.880;2023-11-25T02:24:27;21.80;39.90
12060;DHT22;6091;51.432;6.880;2023-11-25T02:27:01;21.80;39.90
12060;DHT22;6091;51.432;6.880;2023-11-25T02:29:32;21.80;40.00
12060;DHT22;6091;51.432;6.880;2023-11-25T02:32:00;21.80;40.00
12060;DHT22;6091;51.432;6.880;2023-11-25T02:34:27;21.80;40.00
12060;DHT22;6091;51.432;6.880;2023-11-25T02:36:55;21.80;40.00
12060;DHT22;6091;51.432;6.880;2023-11-25T02:39:24;21.80;40.00
12060;DHT22;6091;51.432;6.880;2023-11-25T02:41:52;21.70;40.50
12060;DHT22;6091;51.432;6.880;2023-11-25T02:44:20;21.80;40.00
12060;DHT22;6091;51.432;6.880;2023-11-25T02:46:49;21.70;40.00
12060;DHT22;6091;51.432;6.880;2023-11-25T02:49:17;21.70;40.60
12060;DHT22;6091;51.432;6.880;2023-11-25T02:51:51;21.70;40.00
12060;DHT22;6091;51.432;6.880;2023-11-25T02:54:23;21.70;40.10
12060;DHT22;6091;51.432;6.880;2023-11-25T02:56:50;21.70;40.00
12060;DHT22;6091;51.432;6.880;2023-11-25T02:59:18;21.70;40.00
12060;DHT22;6091;51.432;6.880;2023-11-25T03:01:45;21.70;40.00
12060;DHT22;6091;51.432;6.880;2023-11-25T03:04:20;21.70;40.00
12060;DHT22;6091;51.432;6.880;2023-11-25T03:06:50;21.70;40.00
12060;DHT22;6091;51.432;6.880;2023-11-25T03:09:19;21.70;40.00
12060;DHT22;6091;51.432;6.880;2023-11-25T03:11:46;21.60;40.00
12060;DHT22;6091;51.432;6.880;2023-11-25T03:14:14;21.60;40.00
12060;DHT22;6091;51.432;6.880;2023-11-25T03:16:42;21.60;40.00
12060;DHT22;6091;51.432;6.880;2023-11-25T03:19:10;21.60;40.00
12060;DHT22;6091;51.432;6.880;2023-11-25T03:21:38;21.60;40.00
12060;DHT22;6091;51.432;6.880;2023-11-25T03:24:05;21.60;40.10
12060;DHT22;6091;51.432;6.880;2023-11-25T03:26:35;21.60;40.00
12060;DHT22;6091;51.432;6.880;2023-11-25T03:29:02;21.60;40.10
12060;DHT22;6091;51.432;6.880;2023-11-25T03:31:29;21.60;40.10
12060;DHT22;6091;51.432;6.880;2023-11-25T03:33:56;21.60;40.10
12060;DHT22;6091;51.432;6.880;2023-11-25T03:36:24;21.60;40.10
12060;DHT22;6091;51.432;6.880;2023-11-25T03:38:51;21.60;40.10
12060;DHT22;6091;51.432;6.880;2023-11-25T03:41:18;21.60;40.10
12060;DHT22;6091;51.432;6.880;2023-11-25T03:43:46;21.60;40.20
12060;DHT22;6091;51.432;6.880;2023-11-25T03:46:13;21.60;40.10
12060;DHT22;6091;51.432;6.880;2023-11-25T03:48:40;21.50;40.10
12060;DHT22;6091;51.432;6.880;2023-11-25T03:51:09;21.60;40.10
12060;DHT22;6091;51.432;6.880;2023-11-25T03:53:37;21.50;40.10
12060;DHT22;6091;51.432;6.880;2023-11-25T03:56:05;21.50;40.10
12060;DHT22;6091;51.432;6.880;2023-11-25T03:58:33;21.60;40.10
12060;DHT22;6091;51.432;6.880;2023-11-25T04:01:01;21.30;39.90
12060;DHT22;6091;51.432;6.880;2023-11-25T04:03:28;21.50;40.10
12060;DHT22;6091;51.432;6.880;2023-11-25T04:05:55;21.50;40.10
12060;DHT22;6091;51.432;6.880;2023-11-25T04:08:24;21.50;40.10
12060;DHT22;6091;51.432;6.880;2023-11-25T04:10:51;21.50;40.10
12060;DHT22;6091;51.432;6.880;2023-11-25T04:13:19;21.60;40.20
12060;DHT22;6091;51.432;6.880;2023-11-25T04:15:46;21.50;40.10
12060;DHT22;6091;51.432;6.880;2023-11-25T04:18:14;21.50;40.10
12060;DHT22;6091;51.432;6.880;2023-11-25T04:20:41;21.50;40.20
12060;DHT22;6091;51.432;6.880;2023-11-25T04:23:09;21.50;40.10
12060;DHT22;6091;51.432;6.880;2023-11-25T04:25:36;21.50;40.20
12060;DHT22;6091;51.432;6.880;2023-11-25T04:28:05;21.50;40.20
12060;DHT22;6091;51.432;6.880;2023-11-25T04:30:34;21.50;40.20
12060;DHT22;6091;51.432;6.880;2023-11-25T04:33:01;21.50;40.20
12060;DHT22;6091;51.432;6.880;2023-11-25T04:35:29;21.50;40.20
12060;DHT22;6091;51.432;6.880;2023-11-25T04:37:56;21.50;40.20
12060;DHT22;6091;51.432;6.880;2023-11-25T04:40:23;21.50;40.20
12060;DHT22;6091;51.432;6.880;2023-11-25T04:42:52;21.40;40.10
12060;DHT22;6091;51.432;6.880;2023-11-25T04:45:19;21.40;40.10
12060;DHT22;6091;51.432;6.880;2023-11-25T04:47:48;21.50;40.30
12060;DHT22;6091;51.432;6.880;2023-11-25T04:50:18;21.40;40.20
12060;DHT22;6091;51.432;6.880;2023-11-25T04:52:47;21.40;40.20
12060;DHT22;6091;51.432;6.880;2023-11-25T04:55:14;21.40;40.20
12060;DHT22;6091;51.432;6.880;2023-11-25T04:57:42;21.40;40.20
12060;DHT22;6091;51.432;6.880;2023-11-25T05:00:12;21.40;40.20
12060;DHT22;6091;51.432;6.880;2023-11-25T05:02:41;21.40;40.20
12060;DHT22;6091;51.432;6.880;2023-11-25T05:05:09;21.40;40.20
12060;DHT22;6091;51.432;6.880;2023-11-25T05:07:38;21.40;40.20
12060;DHT22;6091;51.432;6.880;2023-11-25T05:10:06;21.40;40.20
12060;DHT22;6091;51.432;6.880;2023-11-25T05:12:37;21.40;40.30
12060;DHT22;6091;51.432;6.880;2023-11-25T05:15:06;21.40;40.40
12060;DHT22;6091;51.432;6.880;2023-11-25T05:17:36;21.40;40.40
12060;DHT22;6091;51.432;6.880;2023-11-25T05:20:04;21.40;40.50
12060;DHT22;6091;51.432;6.880;2023-11-25T05:22:36;21.40;40.60
12060;DHT22;6091;51.432;6.880;2023-11-25T05:25:04;21.40;40.60
12060;DHT22;6091;51.432;6.880;2023-11-25T05:27:32;21.40;40.60
12060;DHT22;6091;51.432;6.880;2023-11-25T05:30:03;21.50;40.80
12060;DHT22;6091;51.432;6.880;2023-11-25T05:32:32;21.50;40.90
12060;DHT22;6091;51.432;6.880;2023-11-25T05:34:59;21.60;40.90
12060;DHT22;6091;51.432;6.880;2023-11-25T05:37:27;21.50;40.80
12060;DHT22;6091;51.432;6.880;2023-11-25T05:39:54;21.60;40.90
12060;DHT22;6091;51.432;6.880;2023-11-25T05:42:21;21.60;40.90
12060;DHT22;6091;51.432;6.880;2023-11-25T05:44:54;21.60;40.90
12060;DHT22;6091;51.432;6.880;2023-11-25T05:47:23;21.70;40.90
12060;DHT22;6091;51.432;6.880;2023-11-25T05:49:51;21.70;40.90
12060;DHT22;6091;51.432;6.880;2023-11-25T05:52:18;21.80;40.90
12060;DHT22;6091;51.432;6.880;2023-11-25T05:54:45;21.80;40.90
12060;DHT22;6091;51.432;6.880;2023-11-25T05:57:12;21.80;40.90
12060;DHT22;6091;51.432;6.880;2023-11-25T05:59:39;21.90;40.90
12060;DHT22;6091;51.432;6.880;2023-11-25T06:02:08;21.90;40.90
12060;DHT22;6091;51.432;6.880;2023-11-25T06:04:35;21.90;40.90
12060;DHT22;6091;51.432;6.880;2023-11-25T06:07:02;21.90;41.00
12060;DHT22;6091;51.432;6.880;2023-11-25T06:09:30;22.00;40.90
12060;DHT22;6091;51.432;6.880;2023-11-25T06:11:58;22.00;40.90
12060;DHT22;6091;51.432;6.880;2023-11-25T06:14:25;22.00;40.80
12060;DHT22;6091;51.432;6.880;2023-11-25T06:16:52;22.00;40.80
12060;DHT22;6091;51.432;6.880;2023-11-25T06:19:23;22.10;40.90
12060;DHT22;6091;51.432;6.880;2023-11-25T06:21:50;22.10;40.90
12060;DHT22;6091;51.432;6.880;2023-11-25T06:24:18;22.10;40.80
12060;DHT22;6091;51.432;6.880;2023-11-25T06:26:46;22.10;40.80
12060;DHT22;6091;51.432;6.880;2023-11-25T06:29:14;22.10;40.70
12060;DHT22;6091;51.432;6.880;2023-11-25T06:31:42;22.10;40.70
12060;DHT22;6091;51.432;6.880;2023-11-25T06:34:12;22.10;40.70
12060;DHT22;6091;51.432;6.880;2023-11-25T06:36:40;22.10;40.70
12060;DHT22;6091;51.432;6.880;2023-11-25T06:39:08;22.10;40.60
12060;DHT22;6091;51.432;6.880;2023-11-25T06:41:38;22.10;40.60
12060;DHT22;6091;51.432;6.880;2023-11-25T06:44:10;22.10;40.60
12060;DHT22;6091;51.432;6.880;2023-11-25T06:46:37;22.10;40.60
12060;DHT22;6091;51.432;6.880;2023-11-25T06:49:04;22.10;40.60
12060;DHT22;6091;51.432;6.880;2023-11-25T06:51:31;22.10;40.60
12060;DHT22;6091;51.432;6.880;2023-11-25T06:53:58;22.10;40.60
12060;DHT22;6091;51.432;6.880;2023-11-25T06:56:25;22.10;40.60
12060;DHT22;6091;51.432;6.880;2023-11-25T06:58:53;22.10;40.60
12060;DHT22;6091;51.432;6.880;2023-11-25T07:01:20;22.10;40.60
12060;DHT22;6091;51.432;6.880;2023-11-25T07:03:48;22.10;40.60
12060;DHT22;6091;51.432;6.880;2023-11-25T07:06:15;22.20;40.70
12060;DHT22;6091;51.432;6.880;2023-11-25T07:08:45;22.20;40.70
12060;DHT22;6091;51.432;6.880;2023-11-25T07:11:12;22.10;40.60
12060;DHT22;6091;51.432;6.880;2023-11-25T07:13:41;22.20;40.70
12060;DHT22;6091;51.432;6.880;2023-11-25T07:16:09;22.20;40.70
12060;DHT22;6091;51.432;6.880;2023-11-25T07:18:39;22.20;40.60
12060;DHT22;6091;51.432;6.880;2023-11-25T07:21:10;22.20;40.60
12060;DHT22;6091;51.432;6.880;2023-11-25T07:23:40;22.20;40.60
12060;DHT22;6091;51.432;6.880;2023-11-25T07:26:09;22.20;40.60
12060;DHT22;6091;51.432;6.880;2023-11-25T07:28:42;22.20;40.60
12060;DHT22;6091;51.432;6.880;2023-11-25T07:31:11;22.20;40.50
12060;DHT22;6091;51.432;6.880;2023-11-25T07:33:38;22.20;40.50
12060;DHT22;6091;51.432;6.880;2023-11-25T07:36:05;22.20;40.50
12060;DHT22;6091;51.432;6.880;2023-11-25T07:38:33;22.20;40.50
12060;DHT22;6091;51.432;6.880;2023-11-25T07:41:00;22.20;40.60
12060;DHT22;6091;51.432;6.880;2023-11-25T07:43:27;22.20;40.60
12060;DHT22;6091;51.432;6.880;2023-11-25T07:45:55;22.20;40.60
12060;DHT22;6091;51.432;6.880;2023-11-25T07:48:23;22.20;40.70
12060;DHT22;6091;51.432;6.880;2023-11-25T07:50:50;22.20;40.70
12060;DHT22;6091;51.432;6.880;2023-11-25T07:53:17;22.20;40.70
12060;DHT22;6091;51.432;6.880;2023-11-25T07:55:50;22.20;40.70
12060;DHT22;6091;51.432;6.880;2023-11-25T07:58:18;22.20;40.70
12060;DHT22;6091;51.432;6.880;2023-11-25T08:00:46;22.20;40.70
12060;DHT22;6091;51.432;6.880;2023-11-25T08:03:13;22.20;40.70
12060;DHT22;6091;51.432;6.880;2023-11-25T08:05:41;22.30;40.80
12060;DHT22;6091;51.432;6.880;2023-11-25T08:08:08;22.20;40.70
12060;DHT22;6091;51.432;6.880;2023-11-25T08:10:35;22.30;40.80
12060;DHT22;6091;51.432;6.880;2023-11-25T08:13:02;22.30;40.80
12060;DHT22;6091;51.432;6.880;2023-11-25T08:15:31;22.30;40.90
12060;DHT22;6091;51.432;6.880;2023-11-25T08:17:58;22.30;40.90
12060;DHT22;6091;51.432;6.880;2023-11-25T08:20:26;22.30;40.80
12060;DHT22;6091;51.432;6.880;2023-11-25T08:22:53;22.30;40.80
12060;DHT22;6091;51.432;6.880;2023-11-25T08:25:20;22.30;40.70
12060;DHT22;6091;51.432;6.880;2023-11-25T08:27:49;22.30;40.70
12060;DHT22;6091;51.432;6.880;2023-11-25T08:30:18;22.30;40.70
12060;DHT22;6091;51.432;6.880;2023-11-25T08:32:45;22.40;40.70
12060;DHT22;6091;51.432;6.880;2023-11-25T08:35:12;22.30;40.60
12060;DHT22;6091;51.432;6.880;2023-11-25T08:37:40;22.40;40.70
12060;DHT22;6091;51.432;6.880;2023-11-25T08:40:08;22.30;40.60
12060;DHT22;6091;51.432;6.880;2023-11-25T08:42:37;22.40;40.70
12060;DHT22;6091;51.432;6.880;2023-11-25T08:45:04;22.40;40.60
12060;DHT22;6091;51.432;6.880;2023-11-25T08:47:32;22.40;40.60
12060;DHT22;6091;51.432;6.880;2023-11-25T08:50:05;22.40;40.60
12060;DHT22;6091;51.432;6.880;2023-11-25T08:52:35;22.40;40.60
12060;DHT22;6091;51.432;6.880;2023-11-25T08:55:06;22.40;40.60
12060;DHT22;6091;51.432;6.880;2023-11-25T08:57:38;22.40;40.60
12060;DHT22;6091;51.432;6.880;2023-11-25T09:00:06;22.40;40.60
12060;DHT22;6091;51.432;6.880;2023-11-25T09:02:42;22.40;40.60
12060;DHT22;6091;51.432;6.880;2023-11-25T09:05:11;22.40;40.60
12060;DHT22;6091;51.432;6.880;2023-11-25T09:07:42;22.40;40.50
12060;DHT22;6091;51.432;6.880;2023-11-25T09:10:11;22.40;40.50
12060;DHT22;6091;51.432;6.880;2023-11-25T09:12:39;22.90;40.90
12060;DHT22;6091;51.432;6.880;2023-11-25T09:15:07;22.50;40.50
12060;DHT22;6091;51.432;6.880;2023-11-25T09:17:36;22.50;40.50
12060;DHT22;6091;51.432;6.880;2023-11-25T09:20:11;22.50;40.50
12060;DHT22;6091;51.432;6.880;2023-11-25T09:22:43;22.60;40.50
12060;DHT22;6091;51.432;6.880;2023-11-25T09:25:12;22.50;40.40
12060;DHT22;6091;51.432;6.880;2023-11-25T09:27:43;22.50;40.40
12060;DHT22;6091;51.432;6.880;2023-11-25T09:30:12;22.60;40.40
12060;DHT22;6091;51.432;6.880;2023-11-25T09:32:41;22.60;41.10
12060;DHT22;6091;51.432;6.880;2023-11-25T09:35:12;22.60;40.40
12060;DHT22;6091;51.432;6.880;2023-11-25T09:37:41;22.60;40.40
12060;DHT22;6091;51.432;6.880;2023-11-25T09:40:10;22.60;40.40
12060;DHT22;6091;51.432;6.880;2023-11-25T09:42:46;22.60;40.50
12060;DHT22;6091;51.432;6.880;2023-11-25T09:45:15;22.60;40.50
12060;DHT22;6091;51.432;6.880;2023-11-25T09:47:43;22.60;40.50
12060;DHT22;6091;51.432;6.880;2023-11-25T09:50:12;22.70;40.50
12060;DHT22;6091;51.432;6.880;2023-11-25T09:52:49;22.70;40.60
12060;DHT22;6091;51.432;6.880;2023-11-25T09:55:19;22.80;40.50
12060;DHT22;6091;51.432;6.880;2023-11-25T09:57:53;22.80;40.60
12060;DHT22;6091;51.432;6.880;2023-11-25T10:00:45;22.80;40.50
12060;DHT22;6091;51.432;6.880;2023-11-25T10:03:13;22.90;40.50
12060;DHT22;6091;51.432;6.880;2023-11-25T10:05:43;22.90;40.40
12060;DHT22;6091;51.432;6.880;2023-11-25T10:08:13;23.00;40.50
12060;DHT22;6091;51.432;6.880;2023-11-25T10:10:40;23.00;40.50
12060;DHT22;6091;51.432;6.880;2023-11-25T10:13:24;23.00;40.40
12060;DHT22;6091;51.432;6.880;2023-11-25T10:15:52;23.10;40.50
12060;DHT22;6091;51.432;6.880;2023-11-25T10:18:19;23.10;40.40
12060;DHT22;6091;51.432;6.880;2023-11-25T10:20:46;23.10;40.40
12060;DHT22;6091;51.432;6.880;2023-11-25T10:23:20;23.00;40.30
12060;DHT22;6091;51.432;6.880;2023-11-25T10:25:49;23.00;40.40
12060;DHT22;6091;51.432;6.880;2023-11-25T10:28:21;23.10;40.50
12060;DHT22;6091;51.432;6.880;2023-11-25T10:30:56;23.10;40.30
12060;DHT22;6091;51.432;6.880;2023-11-25T10:33:24;23.10;40.20
12060;DHT22;6091;51.432;6.880;2023-11-25T10:35:51;23.20;40.10
12060;DHT22;6091;51.432;6.880;2023-11-25T10:38:19;23.20;40.10
12060;DHT22;6091;51.432;6.880;2023-11-25T10:40:49;23.20;40.00
12060;DHT22;6091;51.432;6.880;2023-11-25T10:43:17;23.20;39.90
12060;DHT22;6091;51.432;6.880;2023-11-25T10:45:49;23.20;39.80
12060;DHT22;6091;51.432;6.880;2023-11-25T10:48:32;23.10;39.60
12060;DHT22;6091;51.432;6.880;2023-11-25T10:51:02;23.10;39.60
12060;DHT22;6091;51.432;6.880;2023-11-25T10:53:31;23.10;39.60
12060;DHT22;6091;51.432;6.880;2023-11-25T10:56:00;23.00;39.60
12060;DHT22;6091;51.432;6.880;2023-11-25T10:58:28;23.00;39.60
12060;DHT22;6091;51.432;6.880;2023-11-25T11:00:57;23.00;39.70
12060;DHT22;6091;51.432;6.880;2023-11-25T11:06:32;23.00;39.60
12060;DHT22;6091;51.432;6.880;2023-11-25T11:09:08;23.00;39.70
12060;DHT22;6091;51.432;6.880;2023-11-25T11:11:42;22.90;39.60
12060;DHT22;6091;51.432;6.880;2023-11-25T11:14:20;22.90;39.60
12060;DHT22;6091;51.432;6.880;2023-11-25T11:19:58;22.90;39.60
12060;DHT22;6091;51.432;6.880;2023-11-25T11:22:28;22.90;39.70
12060;DHT22;6091;51.432;6.880;2023-11-25T11:28:03;22.90;39.70
12060;DHT22;6091;51.432;6.880;2023-11-25T11:30:47;22.90;39.60
12060;DHT22;6091;51.432;6.880;2023-11-25T11:33:35;23.00;39.70
12060;DHT22;6091;51.432;6.880;2023-11-25T11:36:06;22.90;39.60
12060;DHT22;6091;51.432;6.880;2023-11-25T11:38:33;22.90;39.70
12060;DHT22;6091;51.432;6.880;2023-11-25T11:44:06;22.90;39.60
12060;DHT22;6091;51.432;6.880;2023-11-25T11:46:37;22.90;39.60
12060;DHT22;6091;51.432;6.880;2023-11-25T11:49:10;22.90;39.60
12060;DHT22;6091;51.432;6.880;2023-11-25T11:52:01;22.90;39.60
12060;DHT22;6091;51.432;6.880;2023-11-25T11:54:29;22.90;39.50
12060;DHT22;6091;51.432;6.880;2023-11-25T11:57:07;22.90;39.60
12060;DHT22;6091;51.432;6.880;2023-11-25T12:02:39;22.90;39.60
12060;DHT22;6091;51.432;6.880;2023-11-25T12:05:15;22.90;39.70
12060;DHT22;6091;51.432;6.880;2023-11-25T12:07:42;22.90;39.60
12060;DHT22;6091;51.432;6.880;2023-11-25T12:10:10;22.90;39.60
12060;DHT22;6091;51.432;6.880;2023-11-25T12:12:41;23.00;39.70
12060;DHT22;6091;51.432;6.880;2023-11-25T12:15:09;23.00;39.70
12060;DHT22;6091;51.432;6.880;2023-11-25T12:17:37;23.00;39.60
12060;DHT22;6091;51.432;6.880;2023-11-25T12:20:09;23.00;39.60
12060;DHT22;6091;51.432;6.880;2023-11-25T12:22:38;23.00;39.60
12060;DHT22;6091;51.432;6.880;2023-11-25T12:25:08;23.00;39.60
12060;DHT22;6091;51.432;6.880;2023-11-25T12:30:38;23.10;39.50
12060;DHT22;6091;51.432;6.880;2023-11-25T12:33:08;23.00;39.50
12060;DHT22;6091;51.432;6.880;2023-11-25T12:35:40;23.00;39.50
12060;DHT22;6091;51.432;6.880;2023-11-25T12:38:11;23.00;39.50
12060;DHT22;6091;51.432;6.880;2023-11-25T12:40:42;23.00;39.50
12060;DHT22;6091;51.432;6.880;2023-11-25T12:43:13;22.90;39.40
12060;DHT22;6091;51.432;6.880;2023-11-25T12:45:43;23.00;39.60
12060;DHT22;6091;51.432;6.880;2023-11-25T12:48:13;22.90;39.40
12060;DHT22;6091;51.432;6.880;2023-11-25T12:53:52;23.00;39.50
12060;DHT22;6091;51.432;6.880;2023-11-25T12:56:22;23.00;39.50
12060;DHT22;6091;51.432;6.880;2023-11-25T12:58:50;22.90;39.40
12060;DHT22;6091;51.432;6.880;2023-11-25T13:01:23;22.90;39.40
12060;DHT22;6091;51.432;6.880;2023-11-25T13:03:52;22.40;39.00
12060;DHT22;6091;51.432;6.880;2023-11-25T13:06:19;22.90;40.10
12060;DHT22;6091;51.432;6.880;2023-11-25T13:08:47;22.90;39.40
12060;DHT22;6091;51.432;6.880;2023-11-25T13:11:14;22.90;39.40
12060;DHT22;6091;51.432;6.880;2023-11-25T13:13:45;22.90;39.40
12060;DHT22;6091;51.432;6.880;2023-11-25T13:16:13;22.80;39.40
12060;DHT22;6091;51.432;6.880;2023-11-25T13:18:48;22.80;39.40
12060;DHT22;6091;51.432;6.880;2023-11-25T13:21:16;22.90;39.40
12060;DHT22;6091;51.432;6.880;2023-11-25T13:23:43;22.80;39.40
12060;DHT22;6091;51.432;6.880;2023-11-25T13:26:10;22.80;39.40
12060;DHT22;6091;51.432;6.880;2023-11-25T13:28:39;22.80;39.40
12060;DHT22;6091;51.432;6.880;2023-11-25T13:31:07;22.80;39.40
12060;DHT22;6091;51.432;6.880;2023-11-25T13:33:34;22.80;39.40
12060;DHT22;6091;51.432;6.880;2023-11-25T13:36:02;22.80;40.10
12060;DHT22;6091;51.432;6.880;2023-11-25T13:38:30;22.70;39.40
12060;DHT22;6091;51.432;6.880;2023-11-25T13:40:58;22.70;39.40
12060;DHT22;6091;51.432;6.880;2023-11-25T13:43:25;22.70;39.40
12060;DHT22;6091;51.432;6.880;2023-11-25T13:45:53;22.70;39.40
12060;DHT22;6091;51.432;6.880;2023-11-25T13:48:20;22.70;39.50
12060;DHT22;6091;51.432;6.880;2023-11-25T13:50:48;22.70;40.00
12060;DHT22;6091;51.432;6.880;2023-11-25T13:53:17;22.70;39.50
12060;DHT22;6091;51.432;6.880;2023-11-25T13:55:47;22.70;39.40
12060;DHT22;6091;51.432;6.880;2023-11-25T13:58:16;22.70;39.50
12060;DHT22;6091;51.432;6.880;2023-11-25T14:00:43;22.70;39.50
12060;DHT22;6091;51.432;6.880;2023-11-25T14:03:12;22.70;39.50
12060;DHT22;6091;51.432;6.880;2023-11-25T14:05:42;22.70;39.50
12060;DHT22;6091;51.432;6.880;2023-11-25T14:08:12;22.70;39.50
12060;DHT22;6091;51.432;6.880;2023-11-25T14:10:42;22.70;39.50
12060;DHT22;6091;51.432;6.880;2023-11-25T14:13:11;22.70;39.50
12060;DHT22;6091;51.432;6.880;2023-11-25T14:15:41;22.70;39.50
12060;DHT22;6091;51.432;6.880;2023-11-25T14:18:13;22.70;39.50
12060;DHT22;6091;51.432;6.880;2023-11-25T14:20:41;22.70;39.50
12060;DHT22;6091;51.432;6.880;2023-11-25T14:23:09;22.70;39.50
12060;DHT22;6091;51.432;6.880;2023-11-25T14:25:37;22.70;39.40
12060;DHT22;6091;51.432;6.880;2023-11-25T14:28:06;22.80;39.50
12060;DHT22;6091;51.432;6.880;2023-11-25T14:30:35;22.70;39.50
12060;DHT22;6091;51.432;6.880;2023-11-25T14:33:04;22.70;39.40
12060;DHT22;6091;51.432;6.880;2023-11-25T14:35:33;22.70;39.40
12060;DHT22;6091;51.432;6.880;2023-11-25T14:38:00;22.70;39.50
12060;DHT22;6091;51.432;6.880;2023-11-25T14:40:32;22.70;39.40
12060;DHT22;6091;51.432;6.880;2023-11-25T14:43:06;22.70;39.50
12060;DHT22;6091;51.432;6.880;2023-11-25T14:45:35;22.70;39.50
12060;DHT22;6091;51.432;6.880;2023-11-25T14:48:03;22.70;39.50
12060;DHT22;6091;51.432;6.880;2023-11-25T14:50:35;22.70;39.50
12060;DHT22;6091;51.432;6.880;2023-11-25T14:53:07;22.70;39.50
12060;DHT22;6091;51.432;6.880;2023-11-25T14:55:39;22.70;39.40
12060;DHT22;6091;51.432;6.880;2023-11-25T14:58:07;22.70;39.50
12060;DHT22;6091;51.432;6.880;2023-11-25T15:00:35;22.60;39.40
12060;DHT22;6091;51.432;6.880;2023-11-25T15:03:06;22.60;39.40
12060;DHT22;6091;51.432;6.880;2023-11-25T15:05:35;22.60;39.40
12060;DHT22;6091;51.432;6.880;2023-11-25T15:08:05;22.60;39.40
12060;DHT22;6091;51.432;6.880;2023-11-25T15:10:32;22.60;39.40
12060;DHT22;6091;51.432;6.880;2023-11-25T15:13:00;22.60;39.40
12060;DHT22;6091;51.432;6.880;2023-11-25T15:15:27;22.60;39.40
12060;DHT22;6091;51.432;6.880;2023-11-25T15:17:55;22.60;39.40
12060;DHT22;6091;51.432;6.880;2023-11-25T15:20:23;22.60;39.40
12060;DHT22;6091;51.432;6.880;2023-11-25T15:22:51;22.60;39.40
12060;DHT22;6091;51.432;6.880;2023-11-25T15:25:20;22.50;39.40
12060;DHT22;6091;51.432;6.880;2023-11-25T15:27:48;22.50;39.40
12060;DHT22;6091;51.432;6.880;2023-11-25T15:30:15;22.60;39.50
12060;DHT22;6091;51.432;6.880;2023-11-25T15:32:45;22.50;39.40
12060;DHT22;6091;51.432;6.880;2023-11-25T15:35:12;22.50;39.50
12060;DHT22;6091;51.432;6.880;2023-11-25T15:37:39;22.50;39.40
12060;DHT22;6091;51.432;6.880;2023-11-25T15:40:09;22.50;39.50
12060;DHT22;6091;51.432;6.880;2023-11-25T15:42:40;22.50;39.50
12060;DHT22;6091;51.432;6.880;2023-11-25T15:45:08;22.50;39.40
12060;DHT22;6091;51.432;6.880;2023-11-25T15:47:36;22.40;39.40
12060;DHT22;6091;51.432;6.880;2023-11-25T15:50:05;22.50;39.50
12060;DHT22;6091;51.432;6.880;2023-11-25T15:52:32;22.40;39.40
12060;DHT22;6091;51.432;6.880;2023-11-25T15:55:00;22.50;39.50
12060;DHT22;6091;51.432;6.880;2023-11-25T15:57:27;22.40;39.40
12060;DHT22;6091;51.432;6.880;2023-11-25T15:59:54;22.50;39.60
12060;DHT22;6091;51.432;6.880;2023-11-25T16:02:22;22.40;39.50
12060;DHT22;6091;51.432;6.880;2023-11-25T16:04:51;22.40;39.50
12060;DHT22;6091;51.432;6.880;2023-11-25T16:07:18;22.40;39.50
12060;DHT22;6091;51.432;6.880;2023-11-25T16:09:48;22.40;39.50
12060;DHT22;6091;51.432;6.880;2023-11-25T16:12:15;22.40;39.50
12060;DHT22;6091;51.432;6.880;2023-11-25T16:14:43;22.40;39.50
12060;DHT22;6091;51.432;6.880;2023-11-25T16:17:10;22.40;39.50